Time;durP1;ratioP1;P1;durP2;ratioP2;P2;SDS_P1;SDS_P2;PMS_P1;PMS_P2;Temp;Humidity;BMP_temperature;BMP_pressure;BME280_temperature;BME280_humidity;BME280_pressure;Samples;Min_cycle;Max_cycle;Signal;HPM_P1;HPM_P2
2023/05/15 00:02:06;;;;;;;2.30;1.77;;;;;;;20.36;57.96;96978.69;4936585;29;20205;-30
2023/05/15 00:04:32;;;;;;;2.60;1.90;;;;;;;20.26;58.36;96961.44;4936209;29;20563;-29
2023/05/15 00:06:59;;;;;;;2.50;1.80;;;;;;;20.36;57.87;96976.16;4935989;29;20235;-29
2023/05/15 00:09:26;;;;;;;2.80;2.03;;;;;;;20.36;58.08;96976.16;4933551;29;20232;-32
2023/05/15 00:11:52;;;;;;;3.37;1.87;;;;;;;20.36;58.10;96975.28;4934315;29;20205;-29
2023/05/15 00:14:19;;;;;;;3.07;2.13;;;;;;;20.36;58.50;96978.69;4936345;29;20287;-28
2023/05/15 00:16:45;;;;;;;1.83;1.70;;;;;;;20.35;57.75;96971.88;4935958;29;20200;-29
2023/05/15 00:19:12;;;;;;;2.13;1.77;;;;;;;20.36;57.85;96977.81;4935743;29;20232;-29
2023/05/15 00:21:39;;;;;;;1.70;1.60;;;;;;;20.34;57.85;96999.91;4936014;29;20205;-28
2023/05/15 00:24:05;;;;;;;1.70;1.60;;;;;;;20.33;58.03;96960.75;4936253;29;20205;-28
2023/05/15 00:26:32;;;;;;;2.10;1.70;;;;;;;20.34;58.04;96959.09;4936082;29;20280;-28
2023/05/15 00:28:58;;;;;;;2.53;1.90;;;;;;;20.34;57.98;96959.94;4942897;28;20233;-30
2023/05/15 00:31:25;;;;;;;2.50;1.70;;;;;;;20.35;58.12;96959.13;4936155;29;20201;-30
2023/05/15 00:33:51;;;;;;;2.63;1.80;;;;;;;20.37;58.09;96966.81;4936253;29;20212;-29
2023/05/15 00:36:20;;;;;;;1.77;1.50;;;;;;;20.35;57.94;96965.91;4936338;29;20204;-29
2023/05/15 00:38:47;;;;;;;2.70;1.90;;;;;;;20.37;57.71;96957.44;4950212;28;20252;-28
2023/05/15 00:41:13;;;;;;;1.70;1.60;;;;;;;20.35;57.94;96969.34;4936029;29;20236;-30
2023/05/15 00:43:40;;;;;;;2.40;1.67;;;;;;;20.38;58.06;96956.66;4950375;29;20235;-30
2023/05/15 00:46:06;;;;;;;1.80;1.57;;;;;;;20.38;57.97;96958.31;4934736;29;20240;-29
2023/05/15 00:48:33;;;;;;;2.70;1.70;;;;;;;20.37;57.43;96949.78;4935362;29;20228;-29
2023/05/15 00:50:59;;;;;;;2.00;1.67;;;;;;;20.36;57.76;96950.63;4934818;29;20241;-33
2023/05/15 00:53:26;;;;;;;2.40;1.93;;;;;;;20.37;57.97;96951.50;4934824;29;20284;-28
2023/05/15 00:55:57;;;;;;;1.57;1.47;;;;;;;20.37;58.02;96964.28;4935302;29;20217;-29
2023/05/15 00:58:25;;;;;;;2.10;1.57;;;;;;;20.36;58.06;96952.31;4935426;29;20209;-29
2023/05/15 01:00:51;;;;;;;1.60;1.50;;;;;;;20.37;57.93;96954.91;4931920;29;20618;-29
2023/05/15 01:03:18;;;;;;;1.70;1.60;;;;;;;20.36;57.87;96944.66;4928800;29;20205;-33
2023/05/15 01:05:45;;;;;;;3.90;1.80;;;;;;;20.36;58.41;96950.63;4947476;29;20232;-29
2023/05/15 01:08:31;;;;;;;2.00;1.80;;;;;;;20.36;58.28;96947.22;4935148;29;20233;-30
2023/05/15 01:10:58;;;;;;;2.83;1.73;;;;;;;20.37;58.09;96951.50;4950068;29;20587;-28
2023/05/15 01:13:24;;;;;;;1.90;1.70;;;;;;;20.36;58.20;96949.75;4935182;29;20201;-31
2023/05/15 01:15:51;;;;;;;2.13;1.73;;;;;;;20.35;58.03;96950.59;4935615;29;20291;-28
2023/05/15 01:18:18;;;;;;;2.70;1.90;;;;;;;20.35;57.58;96955.69;4935167;29;20232;-37
2023/05/15 01:21:09;;;;;;;1.77;1.53;;;;;;;20.36;58.17;96947.22;4935425;29;20225;-29
2023/05/15 01:24:09;;;;;;;1.90;1.70;;;;;;;20.35;57.99;96958.25;4931607;29;20212;-29
2023/05/15 01:27:09;;;;;;;2.43;1.77;;;;;;;20.33;58.10;96945.47;4946496;29;20201;-30
2023/05/15 01:29:42;;;;;;;1.67;1.57;;;;;;;20.33;58.06;96955.66;4933802;29;20716;-29
2023/05/15 01:32:11;;;;;;;2.03;1.60;;;;;;;20.34;58.02;96957.38;4941515;29;20731;-28
2023/05/15 01:34:51;;;;;;;2.37;1.53;;;;;;;20.30;58.29;96949.59;4949649;29;20224;-29
2023/05/15 01:37:20;;;;;;;1.90;1.70;;;;;;;20.35;58.13;96951.47;4930395;29;20208;-28
2023/05/15 01:39:47;;;;;;;1.67;1.50;;;;;;;20.35;57.98;96946.38;4946964;28;20770;-29
2023/05/15 01:42:14;;;;;;;2.10;1.70;;;;;;;20.36;58.18;96948.09;4945578;29;20209;-29
2023/05/15 01:44:44;;;;;;;2.10;1.77;;;;;;;20.36;58.13;96949.75;4944234;29;20205;-28
2023/05/15 01:47:16;;;;;;;1.63;1.53;;;;;;;20.35;58.25;96951.47;4941916;29;20217;-29
2023/05/15 01:49:43;;;;;;;1.80;1.60;;;;;;;20.36;58.16;96955.75;4948927;28;20311;-29
2023/05/15 01:52:29;;;;;;;1.57;1.47;;;;;;;20.35;57.98;96953.16;4933551;29;20739;-28
2023/05/15 01:54:56;;;;;;;1.80;1.70;;;;;;;20.35;58.01;96961.69;4933342;29;20208;-28
2023/05/15 01:57:22;;;;;;;2.37;1.67;;;;;;;20.30;58.23;96949.59;4934570;29;20240;-28
2023/05/15 01:59:49;;;;;;;3.30;1.83;;;;;;;20.33;57.87;96953.13;4917901;29;20783;-30
2023/05/15 02:02:16;;;;;;;2.23;1.70;;;;;;;20.35;58.15;96960.81;4933466;29;20201;-29
2023/05/15 02:04:43;;;;;;;1.87;1.60;;;;;;;20.35;58.15;96954.03;4949231;29;20209;-29
2023/05/15 02:07:09;;;;;;;1.93;1.80;;;;;;;20.29;58.55;96943.66;4931579;29;20580;-31
2023/05/15 02:09:36;;;;;;;2.17;1.67;;;;;;;20.35;58.24;96959.13;4948541;28;20220;-29
2023/05/15 02:12:02;;;;;;;2.67;1.73;;;;;;;20.35;58.27;96960.81;4934119;29;20243;-28
2023/05/15 02:14:29;;;;;;;1.80;1.70;;;;;;;20.35;58.41;96956.56;4949095;29;20211;-28
2023/05/15 02:16:56;;;;;;;1.73;1.63;;;;;;;20.35;58.18;96954.03;4932728;29;20206;-32
2023/05/15 02:19:22;;;;;;;1.97;1.60;;;;;;;20.36;58.10;96944.66;4933012;29;20714;-29
2023/05/15 02:21:49;;;;;;;2.10;1.73;;;;;;;20.36;57.87;96942.09;4943744;29;20201;-29
2023/05/15 02:24:15;;;;;;;2.27;1.57;;;;;;;20.34;58.05;96938.69;4934162;29;20232;-31
2023/05/15 02:26:56;;;;;;;1.80;1.70;;;;;;;20.36;57.99;96939.56;4934440;29;20197;-29
2023/05/15 02:29:49;;;;;;;2.37;1.70;;;;;;;20.35;58.09;96945.50;4937929;29;20225;-29
2023/05/15 02:32:36;;;;;;;1.80;1.70;;;;;;;20.33;58.03;96942.03;4932892;29;20241;-30
2023/05/15 02:35:26;;;;;;;3.07;1.73;;;;;;;20.33;58.28;96937.81;4933030;29;20708;-29
2023/05/15 02:37:54;;;;;;;1.70;1.60;;;;;;;20.32;58.21;96943.75;4933786;29;20662;-31
2023/05/15 02:40:20;;;;;;;1.63;1.53;;;;;;;20.29;58.10;96932.59;4948182;28;20221;-30
2023/05/15 02:42:47;;;;;;;1.73;1.57;;;;;;;20.34;58.33;96939.50;4932065;29;20201;-29
2023/05/15 02:45:14;;;;;;;1.70;1.60;;;;;;;20.31;58.24;96925.84;4932529;29;20240;-28
2023/05/15 02:47:42;;;;;;;1.87;1.60;;;;;;;20.35;58.23;96932.72;4948724;29;20229;-30
2023/05/15 02:50:09;;;;;;;1.73;1.63;;;;;;;20.32;58.06;96925.88;4932750;29;20263;-28
2023/05/15 02:52:35;;;;;;;1.93;1.50;;;;;;;20.35;58.24;96936.16;4946790;29;20204;-32
2023/05/15 02:55:02;;;;;;;1.47;1.27;;;;;;;20.23;58.12;96912.91;4934158;29;20246;-29
2023/05/15 02:57:29;;;;;;;1.87;1.67;;;;;;;20.34;58.02;96933.56;4933017;29;20634;-29
2023/05/15 02:59:56;;;;;;;1.73;1.50;;;;;;;20.34;58.52;96926.75;4933859;29;20235;-30
2023/05/15 03:02:22;;;;;;;1.83;1.60;;;;;;;20.35;58.17;96931.06;4933483;29;20205;-30
2023/05/15 03:04:49;;;;;;;2.37;1.93;;;;;;;20.34;58.07;96931.84;4933649;29;20201;-28
2023/05/15 03:07:16;;;;;;;1.70;1.60;;;;;;;20.34;58.12;96933.56;4933729;29;20300;-28
2023/05/15 03:09:42;;;;;;;1.80;1.50;;;;;;;20.34;57.77;96938.69;4933744;29;20280;-30
2023/05/15 03:12:09;;;;;;;1.60;1.50;;;;;;;20.34;58.08;96931.03;4932489;29;20276;-30
2023/05/15 03:14:36;;;;;;;1.73;1.50;;;;;;;20.33;58.59;96934.38;4933351;29;20236;-29
2023/05/15 03:17:02;;;;;;;1.73;1.50;;;;;;;20.33;58.05;96929.28;4926984;29;20293;-29
2023/05/15 03:19:30;;;;;;;1.93;1.50;;;;;;;20.34;58.25;96926.75;4932189;29;20235;-28
2023/05/15 03:21:56;;;;;;;1.50;1.40;;;;;;;20.34;58.19;96933.56;4931107;29;20695;-29
2023/05/15 03:24:23;;;;;;;1.43;1.33;;;;;;;20.34;58.09;96925.91;4933417;29;20205;-34
2023/05/15 03:26:49;;;;;;;1.87;1.63;;;;;;;20.34;58.06;96931.84;4927447;29;20527;-29
2023/05/15 03:29:16;;;;;;;1.70;1.60;;;;;;;20.34;57.94;96933.56;4930076;29;20239;-29
2023/05/15 03:31:42;;;;;;;1.90;1.67;;;;;;;20.32;57.98;96917.34;4930162;29;20287;-28
2023/05/15 03:34:09;;;;;;;1.57;1.47;;;;;;;20.34;58.07;96926.75;4929826;29;20617;-28
2023/05/15 03:36:36;;;;;;;1.77;1.60;;;;;;;20.21;57.75;96909.44;4930146;29;20590;-29
2023/05/15 03:39:03;;;;;;;1.63;1.53;;;;;;;20.32;58.22;96925.88;4932357;29;20650;-29
2023/05/15 03:41:30;;;;;;;1.60;1.50;;;;;;;20.32;58.75;96925.88;4931177;29;20209;-31
2023/05/15 03:43:56;;;;;;;1.67;1.57;;;;;;;20.32;58.29;96928.44;4931669;29;20205;-29
2023/05/15 03:46:23;;;;;;;1.70;1.60;;;;;;;20.34;58.54;96931.84;4930616;29;20216;-28
2023/05/15 03:48:50;;;;;;;1.93;1.50;;;;;;;20.36;58.35;96929.34;4936012;29;20292;-32
2023/05/15 03:51:16;;;;;;;1.97;1.63;;;;;;;20.35;58.54;96927.63;4929074;29;20241;-31
2023/05/15 03:53:43;;;;;;;2.37;1.57;;;;;;;20.37;58.36;96936.19;4932908;29;20207;-30
2023/05/15 03:56:09;;;;;;;3.07;1.80;;;;;;;20.36;58.07;96940.44;4928843;29;20209;-29
2023/05/15 03:58:36;;;;;;;3.00;1.93;;;;;;;20.35;58.08;96932.72;4934908;29;20201;-30
2023/05/15 04:01:02;;;;;;;1.80;1.70;;;;;;;19.99;57.85;96871.44;4928833;29;20297;-29
2023/05/15 04:03:29;;;;;;;1.63;1.53;;;;;;;20.34;57.89;96947.16;4933868;29;20201;-32
2023/05/15 04:05:55;;;;;;;1.77;1.40;;;;;;;20.34;58.49;96929.31;4933631;29;20623;-29
2023/05/15 04:08:22;;;;;;;2.50;1.70;;;;;;;20.34;58.53;96931.84;4930126;29;20225;-30
2023/05/15 04:10:49;;;;;;;2.27;1.50;;;;;;;20.33;58.45;96932.69;4934173;29;20272;-29
2023/05/15 04:13:15;;;;;;;2.57;1.53;;;;;;;20.34;58.43;96929.31;4933630;29;20206;-30
2023/05/15 04:15:42;;;;;;;1.60;1.50;;;;;;;20.33;58.48;96930.16;4930800;29;20209;-31
2023/05/15 04:18:08;;;;;;;2.73;1.60;;;;;;;20.33;58.43;96931.81;4930057;29;20197;-28
2023/05/15 04:20:35;;;;;;;1.60;1.50;;;;;;;20.31;58.53;96931.78;4932343;29;20225;-28
2023/05/15 04:23:03;;;;;;;1.90;1.70;;;;;;;20.32;58.49;96927.56;4929182;29;20690;-29
2023/05/15 04:25:29;;;;;;;1.77;1.67;;;;;;;20.31;58.41;96925.84;4935005;29;20240;-33
2023/05/15 04:27:56;;;;;;;1.63;1.53;;;;;;;20.32;58.90;96925.00;4935419;29;20619;-35
2023/05/15 04:30:22;;;;;;;3.43;1.70;;;;;;;20.33;58.64;96924.16;4932178;29;20229;-34
2023/05/15 04:32:50;;;;;;;2.03;1.60;;;;;;;20.32;58.63;96925.88;4923499;29;20220;-28
2023/05/15 04:35:17;;;;;;;1.67;1.57;;;;;;;20.33;58.66;96932.69;4923994;29;20216;-30
2023/05/15 04:37:44;;;;;;;2.50;1.50;;;;;;;20.32;58.96;96932.66;4923622;29;20207;-29
2023/05/15 04:40:13;;;;;;;1.60;1.50;;;;;;;20.29;58.76;96919.81;4925394;29;20707;-30
2023/05/15 04:42:40;;;;;;;3.13;1.60;;;;;;;20.33;58.73;96924.16;4939936;29;20227;-30
2023/05/15 04:45:08;;;;;;;2.13;1.77;;;;;;;20.32;59.01;96936.09;4930794;29;20239;-29
2023/05/15 04:47:34;;;;;;;2.33;1.80;;;;;;;20.33;59.21;96935.25;4932750;29;20632;-30
2023/05/15 04:50:01;;;;;;;3.07;1.57;;;;;;;20.35;59.06;96936.16;4928626;29;20312;-30
2023/05/15 04:52:28;;;;;;;4.07;1.80;;;;;;;20.35;59.01;96932.72;4935483;29;20279;-29
2023/05/15 04:54:54;;;;;;;3.80;1.70;;;;;;;20.37;58.27;96941.31;4934909;29;20283;-29
2023/05/15 04:57:21;;;;;;;1.50;1.40;;;;;;;20.37;58.99;96942.13;4935304;29;20252;-32
2023/05/15 04:59:48;;;;;;;3.47;1.60;;;;;;;20.38;58.75;96940.47;4935243;29;20716;-29
2023/05/15 05:02:15;;;;;;;4.23;1.90;;;;;;;20.38;58.59;96950.66;4934772;29;20236;-28
2023/05/15 05:04:41;;;;;;;1.80;1.70;;;;;;;20.37;58.68;96949.78;4935510;29;20271;-30
2023/05/15 05:07:08;;;;;;;2.60;1.83;;;;;;;20.38;58.86;96955.78;4935106;29;20627;-29
2023/05/15 05:09:34;;;;;;;2.37;1.70;;;;;;;20.38;58.63;96953.22;4935592;29;20304;-29
2023/05/15 05:12:01;;;;;;;2.37;1.90;;;;;;;20.37;59.12;96948.97;4935497;29;20208;-30
2023/05/15 05:14:28;;;;;;;4.73;1.97;;;;;;;20.37;58.62;96959.16;4935488;29;20209;-28
2023/05/15 05:16:54;;;;;;;3.47;1.60;;;;;;;20.36;58.39;96948.09;4934881;29;20197;-32
2023/05/15 05:19:21;;;;;;;4.03;1.60;;;;;;;20.35;58.81;96954.03;4933473;29;20239;-30
2023/05/15 05:21:47;;;;;;;2.10;1.90;;;;;;;20.36;58.34;96952.31;4935594;29;20545;-28
2023/05/15 05:24:14;;;;;;;3.37;2.07;;;;;;;20.35;58.52;96951.47;4935133;29;20252;-29
2023/05/15 05:26:44;;;;;;;2.43;1.90;;;;;;;20.36;58.96;96949.75;4930079;29;20224;-34
2023/05/15 05:29:10;;;;;;;2.40;2.20;;;;;;;20.36;58.71;96953.19;4934978;29;20233;-30
2023/05/15 05:31:37;;;;;;;3.27;1.97;;;;;;;20.37;58.27;96954.06;4934632;29;20734;-29
2023/05/15 05:34:03;;;;;;;4.37;2.00;;;;;;;20.38;58.58;96953.22;4935304;29;20215;-30
2023/05/15 05:36:30;;;;;;;3.60;2.10;;;;;;;20.36;58.70;96953.19;4934693;29;20223;-29
2023/05/15 05:38:57;;;;;;;3.93;2.20;;;;;;;20.37;58.63;96960.00;4934968;29;20229;-29
2023/05/15 05:41:23;;;;;;;2.87;1.73;;;;;;;20.36;59.09;96954.88;4934584;29;20287;-29
2023/05/15 05:43:50;;;;;;;2.23;1.90;;;;;;;20.35;58.75;96956.56;4935014;29;20264;-29
2023/05/15 05:46:16;;;;;;;2.00;1.80;;;;;;;20.36;58.70;96954.88;4934055;29;20209;-29
2023/05/15 05:48:43;;;;;;;3.07;1.83;;;;;;;20.37;58.50;96959.16;4934500;29;20691;-28
2023/05/15 05:51:10;;;;;;;3.47;1.90;;;;;;;20.38;59.08;96958.31;4957323;23;20294;-28
2023/05/15 05:53:36;;;;;;;3.37;2.30;;;;;;;20.39;58.88;96954.94;4934483;29;20201;-29
2023/05/15 05:56:05;;;;;;;4.73;1.90;;;;;;;20.39;58.57;96960.91;4934627;29;20703;-28
2023/05/15 05:58:31;;;;;;;2.70;2.00;;;;;;;20.40;58.67;96961.78;4934350;29;20211;-29
2023/05/15 06:00:59;;;;;;;3.43;2.10;;;;;;;20.39;58.66;96966.03;4947682;28;20311;-30
2023/05/15 06:03:26;;;;;;;2.10;1.90;;;;;;;20.40;58.81;96964.34;4932765;29;20209;-28
2023/05/15 06:05:53;;;;;;;4.10;2.10;;;;;;;20.40;58.52;96962.63;4934401;29;20605;-28
2023/05/15 06:08:19;;;;;;;3.80;2.07;;;;;;;20.39;58.46;96960.91;4932944;29;20734;-28
2023/05/15 06:10:46;;;;;;;4.77;2.20;;;;;;;20.39;58.56;96988.13;4940691;28;20232;-28
2023/05/15 06:13:13;;;;;;;2.87;2.33;;;;;;;20.37;58.70;96956.63;4934072;29;20209;-28
2023/05/15 06:15:40;;;;;;;3.47;2.50;;;;;;;20.39;58.96;96960.91;4935807;29;20675;-29
2023/05/15 06:18:07;;;;;;;7.33;2.77;;;;;;;20.40;58.68;96964.34;4937000;29;20687;-29
2023/05/15 06:20:34;;;;;;;5.93;3.43;;;;;;;20.38;58.91;96955.78;4935605;28;20357;-28
2023/05/15 06:23:00;;;;;;;5.30;3.50;;;;;;;20.38;58.33;96964.31;4938131;29;20707;-28
2023/05/15 06:25:27;;;;;;;3.70;3.17;;;;;;;20.37;58.77;96954.91;4939307;28;20272;-28
2023/05/15 06:27:54;;;;;;;3.90;2.90;;;;;;;20.37;58.61;96960.00;4937032;29;20235;-28
2023/05/15 06:30:21;;;;;;;4.43;2.80;;;;;;;20.37;58.80;96962.56;4933778;29;20229;-28
2023/05/15 06:32:47;;;;;;;3.10;2.30;;;;;;;20.37;58.44;96959.16;4934149;29;20611;-28
2023/05/15 06:35:14;;;;;;;5.13;4.63;;;;;;;20.38;58.75;96965.97;4936308;29;20284;-28
2023/05/15 06:37:41;;;;;;;12.27;5.63;;;;;;;20.37;58.71;96971.91;4940690;28;20201;-28
2023/05/15 06:40:08;;;;;;;8.30;4.73;;;;;;;20.38;58.66;96968.53;4934117;29;20228;-28
2023/05/15 06:42:35;;;;;;;5.07;4.00;;;;;;;20.37;58.58;96965.09;4933713;29;20682;-29
2023/05/15 06:45:01;;;;;;;5.63;4.50;;;;;;;20.37;58.59;96971.91;4933864;29;20197;-28
2023/05/15 06:47:28;;;;;;;5.53;4.80;;;;;;;20.34;58.47;96972.69;4937172;29;20585;-28
2023/05/15 06:49:55;;;;;;;7.83;4.50;;;;;;;20.33;58.74;96965.00;4943892;28;20274;-35
2023/05/15 06:52:21;;;;;;;8.23;4.60;;;;;;;20.33;58.43;96970.97;4938127;29;20296;-28
2023/05/15 06:54:48;;;;;;;4.83;4.40;;;;;;;20.33;59.07;96978.63;4934384;29;20295;-28
2023/05/15 06:57:14;;;;;;;7.07;4.17;;;;;;;20.36;58.73;96971.03;4939117;29;20215;-28
2023/05/15 06:59:41;;;;;;;4.50;4.10;;;;;;;20.38;58.75;96971.09;4939346;29;20279;-28
2023/05/15 07:02:07;;;;;;;4.90;4.00;;;;;;;20.39;58.97;96972.81;4935265;28;20205;-28
2023/05/15 07:04:34;;;;;;;4.20;3.80;;;;;;;20.40;58.20;96969.44;4927223;29;20201;-28
2023/05/15 07:07:01;;;;;;;4.90;4.40;;;;;;;20.41;58.44;96960.97;4933055;29;20619;-29
2023/05/15 07:09:27;;;;;;;4.40;3.80;;;;;;;20.41;58.70;96959.28;4935306;29;20227;-28
2023/05/15 07:11:54;;;;;;;4.90;4.20;;;;;;;20.41;58.61;96959.28;4933610;29;20226;-30
2023/05/15 07:14:20;;;;;;;5.27;3.87;;;;;;;20.41;58.44;96959.28;4938209;29;20209;-28
2023/05/15 07:16:47;;;;;;;4.10;3.67;;;;;;;20.41;58.48;96966.94;4933268;29;20236;-28
2023/05/15 07:19:17;;;;;;;4.43;3.77;;;;;;;20.41;58.39;96958.41;4934399;29;20268;-29
2023/05/15 07:21:44;;;;;;;4.67;3.73;;;;;;;20.42;58.23;96960.13;4937454;29;20553;-34
2023/05/15 07:24:10;;;;;;;4.20;3.80;;;;;;;20.42;58.80;96960.13;4946642;29;20263;-29
2023/05/15 07:26:37;;;;;;;5.17;3.50;;;;;;;20.42;58.39;96960.13;4931014;28;20201;-28
2023/05/15 07:29:22;;;;;;;3.87;3.43;;;;;;;20.42;58.48;96963.53;4944905;28;20704;-28
2023/05/15 07:31:49;;;;;;;3.60;3.17;;;;;;;20.42;58.92;96960.13;4937053;29;20211;-30
2023/05/15 07:34:15;;;;;;;4.20;3.80;;;;;;;20.43;58.26;96956.75;4942846;29;20217;-28
2023/05/15 07:36:42;;;;;;;3.47;3.17;;;;;;;20.43;58.39;96961.88;4937776;29;20288;-28
2023/05/15 07:39:09;;;;;;;5.07;3.27;;;;;;;20.42;58.30;96953.34;4937367;29;20201;-28
2023/05/15 07:41:36;;;;;;;3.43;3.13;;;;;;;20.43;58.41;96952.50;4944988;29;20213;-28
2023/05/15 07:44:02;;;;;;;4.10;3.43;;;;;;;20.43;58.32;96949.94;4937126;29;20216;-28
2023/05/15 07:46:29;;;;;;;3.40;3.10;;;;;;;20.44;58.44;96961.03;4936614;29;20200;-28
2023/05/15 07:48:55;;;;;;;3.07;2.83;;;;;;;20.44;58.10;96961.03;4937204;29;20256;-29
2023/05/15 07:51:22;;;;;;;5.10;3.50;;;;;;;20.42;58.39;96958.44;4936511;29;20232;-29
2023/05/15 07:53:48;;;;;;;3.70;3.30;;;;;;;20.41;58.56;96956.72;4936796;29;20209;-29
2023/05/15 07:56:15;;;;;;;5.00;3.23;;;;;;;20.41;58.38;96956.72;4945831;29;20270;-29
2023/05/15 07:58:41;;;;;;;4.03;2.70;;;;;;;20.42;58.52;96961.00;4938953;28;20208;-29
2023/05/15 08:01:08;;;;;;;3.67;3.17;;;;;;;20.43;58.42;96960.16;4944593;29;20243;-29
2023/05/15 08:03:35;;;;;;;3.40;3.10;;;;;;;20.46;58.24;96954.28;4946775;29;20228;-29
2023/05/15 08:06:01;;;;;;;3.23;2.93;;;;;;;20.47;58.31;96956.88;4952358;29;20741;-29
2023/05/15 08:08:28;;;;;;;3.30;3.00;;;;;;;20.47;58.09;96954.31;4949526;28;20293;-29
2023/05/15 08:10:54;;;;;;;3.20;2.87;;;;;;;20.49;57.97;96956.91;4944572;29;20758;-29
2023/05/15 08:13:21;;;;;;;3.23;2.80;;;;;;;20.49;58.09;96950.09;4952585;29;20204;-29
2023/05/15 08:15:48;;;;;;;2.97;2.70;;;;;;;20.49;58.14;96950.09;4938028;28;20276;-29
2023/05/15 08:18:14;;;;;;;3.40;3.10;;;;;;;20.51;57.87;96960.34;4942746;29;20205;-28
2023/05/15 08:20:41;;;;;;;6.23;3.10;;;;;;;20.49;58.48;96962.03;4941198;29;20220;-29
2023/05/15 08:23:07;;;;;;;3.10;2.80;;;;;;;20.49;57.85;96957.75;4943943;28;20209;-30
2023/05/15 08:25:34;;;;;;;3.17;2.87;;;;;;;20.50;58.20;96958.63;4934449;29;20201;-28
2023/05/15 08:28:01;;;;;;;3.17;2.87;;;;;;;20.50;58.20;96961.19;4933327;29;20223;-29
2023/05/15 08:30:27;;;;;;;3.90;2.80;;;;;;;20.47;58.34;96953.44;4935658;29;20224;-28
2023/05/15 08:32:54;;;;;;;3.00;2.80;;;;;;;20.50;58.28;96963.72;4935993;29;20237;-29
2023/05/15 08:35:21;;;;;;;3.37;3.07;;;;;;;20.50;57.99;96966.28;4945743;29;20635;-29
2023/05/15 08:37:47;;;;;;;4.17;2.50;;;;;;;20.49;57.95;96960.31;4941550;29;20723;-29
2023/05/15 08:40:14;;;;;;;4.07;2.50;;;;;;;20.50;58.10;96961.19;4936364;28;20311;-28
2023/05/15 08:42:47;;;;;;;3.23;2.93;;;;;;;20.49;58.22;96985.84;4931812;29;20289;-29
2023/05/15 08:45:14;;;;;;;3.13;2.43;;;;;;;20.48;58.12;96960.28;4937971;29;20220;-29
2023/05/15 08:47:41;;;;;;;3.23;2.83;;;;;;;20.49;58.09;96965.41;4935853;29;20232;-29
2023/05/15 08:50:12;;;;;;;4.87;2.60;;;;;;;20.49;58.00;96962.03;4935591;29;20232;-30
2023/05/15 08:52:45;;;;;;;3.07;2.80;;;;;;;20.38;58.24;96938.78;4936202;29;20201;-30
2023/05/15 08:55:13;;;;;;;2.70;2.50;;;;;;;20.47;58.32;96963.66;4941656;29;20213;-28
2023/05/15 08:57:40;;;;;;;2.60;2.40;;;;;;;20.46;58.16;96952.56;4935662;29;20212;-29
2023/05/15 09:00:08;;;;;;;2.53;2.33;;;;;;;20.47;58.17;96950.91;4943407;29;20228;-29
2023/05/15 09:02:36;;;;;;;3.27;2.90;;;;;;;20.47;58.26;96951.78;4927657;29;20205;-29
2023/05/15 09:05:03;;;;;;;2.90;2.70;;;;;;;20.50;58.32;96950.97;4936072;29;20217;-29
2023/05/15 09:07:30;;;;;;;2.60;2.40;;;;;;;20.50;58.02;96948.41;4935072;29;20208;-29
2023/05/15 09:09:58;;;;;;;2.30;2.10;;;;;;;20.50;58.06;96943.31;4938192;29;20251;-29
2023/05/15 09:12:25;;;;;;;2.47;2.27;;;;;;;20.52;57.90;96949.34;4935408;29;20568;-29
2023/05/15 09:14:53;;;;;;;2.67;2.40;;;;;;;20.52;57.61;96949.34;4939019;29;20201;-29
2023/05/15 09:17:19;;;;;;;2.83;2.60;;;;;;;20.49;58.11;96937.34;4934901;29;20319;-28
2023/05/15 09:19:46;;;;;;;2.80;2.60;;;;;;;20.52;57.82;96941.66;4933555;29;20251;-29
2023/05/15 09:22:16;;;;;;;2.70;2.50;;;;;;;20.52;57.85;96936.56;4935137;29;20295;-30
2023/05/15 09:24:43;;;;;;;2.43;2.23;;;;;;;20.51;57.93;96930.59;4943708;29;20196;-31
2023/05/15 09:27:10;;;;;;;2.50;2.30;;;;;;;20.52;57.85;96934.84;4935063;29;20304;-28
2023/05/15 09:29:37;;;;;;;2.23;2.10;;;;;;;20.43;58.09;96915.94;4942548;28;20231;-28
2023/05/15 09:32:09;;;;;;;2.60;2.40;;;;;;;20.49;57.84;96919.47;4935141;29;20587;-28
2023/05/15 09:34:37;;;;;;;2.03;1.93;;;;;;;20.52;57.79;96918.69;4935961;29;20227;-29
2023/05/15 09:37:06;;;;;;;3.00;2.70;;;;;;;20.51;57.88;96930.59;4942353;29;20231;-29
2023/05/15 09:39:33;;;;;;;3.60;2.30;;;;;;;20.51;57.84;96912.72;4934668;28;20731;-28
2023/05/15 09:42:10;;;;;;;2.90;2.43;;;;;;;20.52;57.89;96911.03;4942920;29;20209;-29
2023/05/15 09:44:42;;;;;;;2.60;2.30;;;;;;;20.46;57.90;96903.25;4941726;29;20295;-28
2023/05/15 09:47:10;;;;;;;2.20;2.10;;;;;;;20.52;57.65;96905.94;4939627;29;20205;-28
2023/05/15 09:49:37;;;;;;;2.50;2.30;;;;;;;20.52;57.89;96900.84;4935619;29;20227;-29
2023/05/15 09:52:06;;;;;;;2.40;2.20;;;;;;;20.49;58.04;96904.16;4937965;28;20292;-29
2023/05/15 09:54:33;;;;;;;2.50;2.30;;;;;;;20.52;57.76;96905.94;4937582;29;20229;-29
2023/05/15 09:57:10;;;;;;;2.30;2.13;;;;;;;20.50;57.82;96900.78;4917560;29;20213;-29
2023/05/15 09:59:44;;;;;;;2.57;2.37;;;;;;;20.49;58.00;96893.09;4934904;29;20226;-28
2023/05/15 10:02:29;;;;;;;2.63;2.43;;;;;;;20.49;57.88;96896.50;4943965;28;20248;-30
2023/05/15 10:04:57;;;;;;;2.40;2.20;;;;;;;20.49;57.98;96900.75;4938455;29;20210;-29
2023/05/15 10:07:31;;;;;;;2.50;2.23;;;;;;;20.49;57.96;96890.56;4937765;28;20228;-29
2023/05/15 10:09:58;;;;;;;2.77;2.40;;;;;;;20.50;58.10;96887.16;4933213;29;20796;-29
2023/05/15 10:12:25;;;;;;;2.67;2.30;;;;;;;20.51;57.77;96882.09;4946723;29;20201;-29
2023/05/15 10:14:53;;;;;;;2.37;2.17;;;;;;;20.52;57.79;96890.63;4937488;29;20200;-29
2023/05/15 10:17:19;;;;;;;2.50;2.30;;;;;;;20.53;57.72;96893.22;4932255;29;20208;-28
2023/05/15 10:19:47;;;;;;;2.23;2.03;;;;;;;20.54;57.57;96892.38;4933887;29;20268;-29
2023/05/15 10:22:24;;;;;;;2.70;2.50;;;;;;;20.47;57.68;96877.75;4918555;29;20201;-29
2023/05/15 10:24:55;;;;;;;2.43;2.27;;;;;;;20.54;57.74;96889.81;4923083;29;20255;-28
2023/05/15 10:27:21;;;;;;;2.10;2.00;;;;;;;20.54;57.76;96887.25;4918385;29;20227;-28
2023/05/15 10:29:48;;;;;;;2.33;2.20;;;;;;;20.54;57.83;96905.13;4932982;29;20291;-29
2023/05/15 10:32:15;;;;;;;2.60;2.40;;;;;;;20.55;57.69;96911.13;4940375;29;20200;-28
2023/05/15 10:34:42;;;;;;;2.37;2.17;;;;;;;20.50;57.61;96908.44;4941019;29;20747;-29
2023/05/15 10:37:08;;;;;;;2.40;2.23;;;;;;;20.54;57.56;96929.81;4916834;29;20284;-28
2023/05/15 10:39:36;;;;;;;2.53;2.33;;;;;;;20.50;58.02;96921.22;4932603;29;20597;-28
2023/05/15 10:42:03;;;;;;;2.50;2.30;;;;;;;20.53;57.62;96925.53;4932609;29;20209;-28
2023/05/15 10:44:29;;;;;;;2.50;2.30;;;;;;;20.52;57.99;96927.19;4916868;29;20418;-28
2023/05/15 10:46:56;;;;;;;7.37;2.80;;;;;;;20.41;58.18;96904.81;4934701;29;20220;-31
2023/05/15 10:49:23;;;;;;;12.50;3.70;;;;;;;20.50;58.84;96917.78;4916590;29;20229;-30
2023/05/15 10:51:51;;;;;;;7.73;3.17;;;;;;;20.53;58.79;96917.84;4932672;29;20216;-28
2023/05/15 10:54:18;;;;;;;11.00;3.20;;;;;;;20.53;58.62;96911.06;4935315;29;20589;-28
2023/05/15 10:56:44;;;;;;;15.23;3.67;;;;;;;20.54;58.52;96910.25;4943115;28;20294;-28
2023/05/15 10:59:11;;;;;;;9.23;2.80;;;;;;;20.56;58.46;96903.50;4945911;28;20197;-29
2023/05/15 11:01:39;;;;;;;16.07;3.10;;;;;;;20.58;58.48;96903.53;4939477;29;20205;-28
2023/05/15 11:04:07;;;;;;;4.90;2.93;;;;;;;20.58;58.55;96895.88;4937673;29;20219;-28
2023/05/15 11:06:34;;;;;;;9.37;2.83;;;;;;;20.58;58.50;96891.63;4944776;28;20567;-29
2023/05/15 11:09:33;;;;;;;11.23;2.90;;;;;;;20.58;58.56;96906.94;4941088;29;20631;-28
2023/05/15 11:12:01;;;;;;;5.60;3.07;;;;;;;20.59;58.12;96875.47;4933548;29;20851;-28
2023/05/15 11:14:37;;;;;;;16.30;3.00;;;;;;;20.60;58.47;96871.25;4944314;29;20213;-28
2023/05/15 11:17:08;;;;;;;7.10;2.77;;;;;;;20.60;58.55;96871.25;4945084;28;20216;-28
2023/05/15 11:19:57;;;;;;;5.40;2.90;;;;;;;20.59;58.50;96872.06;4949350;29;20311;-28
2023/05/15 11:22:29;;;;;;;14.17;3.07;;;;;;;20.58;58.39;96870.34;4953526;28;20243;-29
2023/05/15 11:25:14;;;;;;;8.07;2.70;;;;;;;20.57;58.39;96868.63;4946752;29;20208;-28
2023/05/15 11:27:43;;;;;;;5.33;2.97;;;;;;;20.57;58.36;96869.47;4943976;29;20279;-29
2023/05/15 11:30:21;;;;;;;4.07;3.03;;;;;;;20.58;58.35;96867.78;4940972;29;20319;-28
2023/05/15 11:32:49;;;;;;;3.30;2.40;;;;;;;20.58;58.45;96878.88;4947853;29;20211;-28
2023/05/15 11:35:32;;;;;;;3.90;2.57;;;;;;;20.59;58.59;96864.41;4947975;29;20209;-31
2023/05/15 11:38:06;;;;;;;4.23;2.60;;;;;;;20.59;58.36;96859.28;4944503;29;20211;-28
2023/05/15 11:40:43;;;;;;;2.63;2.40;;;;;;;20.59;58.02;96857.59;4931585;29;20255;-28